createdAt,value
2022-11-25T00:02:25.351Z,3.23
2022-11-25T00:04:52.726Z,3.20
2022-11-25T00:07:20.035Z,3.08
2022-11-25T00:09:47.373Z,3.42
2022-11-25T00:12:14.661Z,3.85
2022-11-25T00:14:41.916Z,3.38
2022-11-25T00:17:09.215Z,3.92
2022-11-25T00:19:37.022Z,3.00
2022-11-25T00:22:04.312Z,4.35
2022-11-25T00:24:31.660Z,3.20
2022-11-25T00:26:58.940Z,2.83
2022-11-25T00:29:26.196Z,3.45
2022-11-25T00:31:53.512Z,3.85
2022-11-25T00:34:20.771Z,3.92
2022-11-25T00:36:48.023Z,3.20
2022-11-25T00:39:16.446Z,3.35
2022-11-25T00:42:03.361Z,4.20
2022-11-25T00:44:37.574Z,3.17
2022-11-25T00:47:26.026Z,2.53
2022-11-25T00:49:54.911Z,3.25
2022-11-25T00:52:26.338Z,3.90
2022-11-25T00:54:54.548Z,3.70
2022-11-25T00:57:23.211Z,3.13
2022-11-25T00:59:50.636Z,3.00
2022-11-25T01:02:18.586Z,3.38
2022-11-25T01:04:46.304Z,3.47
2022-11-25T01:07:17.247Z,4.15
2022-11-25T01:09:44.604Z,3.95
2022-11-25T01:12:12.066Z,3.70
2022-11-25T01:14:39.839Z,3.63
2022-11-25T01:17:07.383Z,4.30
2022-11-25T01:19:38.397Z,3.33
2022-11-25T01:22:05.675Z,3.63
2022-11-25T01:24:33.055Z,4.18
2022-11-25T01:27:00.389Z,3.75
2022-11-25T01:29:27.739Z,3.75
2022-11-25T01:31:56.472Z,3.67
2022-11-25T01:34:25.783Z,3.33
2022-11-25T01:36:53.071Z,4.15
2022-11-25T01:39:22.750Z,4.03
2022-11-25T01:41:52.880Z,4.28
2022-11-25T01:44:21.750Z,4.05
2022-11-25T01:46:49.030Z,2.53
2022-11-25T01:49:31.198Z,2.92
2022-11-25T01:52:10.281Z,4.32
2022-11-25T01:54:41.305Z,3.77
2022-11-25T01:57:14.865Z,3.47
2022-11-25T01:59:44.564Z,3.88
2022-11-25T02:02:12.298Z,3.78
2022-11-25T02:04:40.124Z,3.20
2022-11-25T02:07:12.070Z,3.90
2022-11-25T02:09:42.146Z,3.67
2022-11-25T02:12:09.876Z,3.72
2022-11-25T02:14:37.434Z,4.10
2022-11-25T02:17:05.027Z,3.85
2022-11-25T02:19:43.995Z,3.90
2022-11-25T02:22:16.222Z,3.58
2022-11-25T02:24:45.850Z,3.83
2022-11-25T02:27:14.476Z,3.50
2022-11-25T02:29:44.407Z,3.78
2022-11-25T02:32:12.256Z,3.30
2022-11-25T02:34:47.639Z,9.27
2022-11-25T02:37:15.969Z,4.40
2022-11-25T02:39:43.768Z,4.35
2022-11-25T02:42:13.306Z,4.28
2022-11-25T02:44:41.020Z,3.47
2022-11-25T02:47:09.394Z,3.78
2022-11-25T02:49:38.076Z,3.15
2022-11-25T02:52:06.083Z,3.50
2022-11-25T02:54:33.547Z,3.70
2022-11-25T02:57:02.397Z,3.53
2022-11-25T02:59:32.839Z,3.00
2022-11-25T03:02:00.195Z,3.42
2022-11-25T03:04:27.844Z,2.70
2022-11-25T03:06:56.584Z,4.05
2022-11-25T03:09:25.054Z,3.47
2022-11-25T03:12:11.224Z,3.03
2022-11-25T03:14:39.060Z,3.20
2022-11-25T03:17:07.930Z,4.38
2022-11-25T03:19:35.247Z,3.97
2022-11-25T03:22:02.724Z,4.00
2022-11-25T03:24:30.198Z,3.80
2022-11-25T03:26:57.525Z,4.03
2022-11-25T03:29:24.925Z,3.92
2022-11-25T03:31:52.987Z,3.30
2022-11-25T03:34:21.295Z,4.00
2022-11-25T03:36:49.080Z,3.67
2022-11-25T03:39:16.926Z,3.55
2022-11-25T03:41:44.483Z,3.33
2022-11-25T03:44:13.355Z,3.53
2022-11-25T03:46:41.764Z,2.90
2022-11-25T03:49:09.141Z,3.60
2022-11-25T03:51:37.270Z,3.30
2022-11-25T03:54:05.497Z,3.45
2022-11-25T03:56:49.721Z,2.97
2022-11-25T03:59:17.126Z,2.97
2022-11-25T04:01:44.787Z,2.60
2022-11-25T04:04:12.737Z,2.40
2022-11-25T04:06:40.207Z,2.33
2022-11-25T04:09:08.427Z,2.63
2022-11-25T04:11:54.758Z,2.47
2022-11-25T04:14:24.526Z,1.58
2022-11-25T04:16:51.902Z,2.50
2022-11-25T04:19:19.312Z,2.40
2022-11-25T04:21:51.975Z,2.13
2022-11-25T04:24:20.406Z,2.37
2022-11-25T04:26:48.147Z,1.75
2022-11-25T04:29:15.555Z,1.90
2022-11-25T04:31:43.933Z,2.25
2022-11-25T04:34:11.325Z,2.42
2022-11-25T04:36:39.229Z,2.53
2022-11-25T04:39:06.545Z,1.77
2022-11-25T04:41:35.552Z,2.03
2022-11-25T04:44:03.129Z,2.03
2022-11-25T04:46:35.005Z,2.38
2022-11-25T04:49:02.627Z,2.37
2022-11-25T04:51:30.027Z,2.22
2022-11-25T04:54:01.257Z,2.00
2022-11-25T04:56:28.669Z,2.38
2022-11-25T04:59:15.284Z,2.03
2022-11-25T05:01:46.567Z,1.80
2022-11-25T05:04:36.983Z,2.22
2022-11-25T05:07:04.471Z,1.92
2022-11-25T05:09:31.797Z,3.08
2022-11-25T05:12:08.865Z,2.50
2022-11-25T05:14:36.739Z,1.50
2022-11-25T05:17:04.760Z,1.30
2022-11-25T05:19:33.188Z,2.03
2022-11-25T05:22:00.495Z,1.98
2022-11-25T05:24:27.921Z,1.80
2022-11-25T05:26:55.437Z,1.92
2022-11-25T05:29:23.280Z,1.67
2022-11-25T05:31:50.634Z,2.00
2022-11-25T05:34:18.041Z,2.42
2022-11-25T05:36:46.124Z,2.20
2022-11-25T05:39:13.472Z,1.80
2022-11-25T05:42:01.030Z,1.65
2022-11-25T05:44:28.869Z,1.70
2022-11-25T05:46:56.628Z,2.05
2022-11-25T05:49:24.119Z,1.95
2022-11-25T05:51:51.688Z,1.90
2022-11-25T05:54:21.546Z,2.58
2022-11-25T05:56:48.914Z,1.95
2022-11-25T05:59:32.626Z,1.80
2022-11-25T06:02:12.162Z,2.20
2022-11-25T06:04:39.523Z,2.37
2022-11-25T06:07:07.663Z,2.40
2022-11-25T06:09:35.504Z,1.83
2022-11-25T06:12:02.829Z,2.85
2022-11-25T06:14:31.708Z,2.53
2022-11-25T06:16:59.084Z,2.03
2022-11-25T06:19:34.021Z,2.90
2022-11-25T06:22:01.321Z,2.13
2022-11-25T06:24:30.390Z,2.90
2022-11-25T06:27:02.327Z,2.72
2022-11-25T06:29:29.705Z,2.75
2022-11-25T06:31:57.029Z,2.65
2022-11-25T06:34:56.690Z,2.72
2022-11-25T06:37:34.242Z,2.10
2022-11-25T06:40:01.743Z,3.42
2022-11-25T06:42:29.161Z,3.08
2022-11-25T06:44:56.490Z,3.35
2022-11-25T06:47:23.764Z,2.97
2022-11-25T06:49:51.223Z,3.00
2022-11-25T06:52:18.560Z,3.60
2022-11-25T06:54:45.969Z,3.60
2022-11-25T06:57:17.396Z,3.30
2022-11-25T06:59:45.793Z,3.53
2022-11-25T07:02:13.463Z,3.30
2022-11-25T07:04:40.891Z,3.53
2022-11-25T07:07:08.735Z,4.45
2022-11-25T07:09:36.175Z,3.20
2022-11-25T07:12:03.603Z,3.70
2022-11-25T07:14:30.839Z,3.55
2022-11-25T07:16:58.155Z,3.85
2022-11-25T07:19:25.547Z,4.13
2022-11-25T07:21:52.854Z,3.90
2022-11-25T07:24:20.159Z,3.50
2022-11-25T07:26:47.488Z,4.28
2022-11-25T07:29:44.368Z,3.70
2022-11-25T07:32:08.742Z,4.22
2022-11-25T07:34:37.729Z,3.28
2022-11-25T07:37:04.987Z,3.40
2022-11-25T07:39:32.499Z,4.03
2022-11-25T07:41:59.829Z,3.67
2022-11-25T07:44:27.071Z,3.90
2022-11-25T07:47:01.615Z,4.10
2022-11-25T07:49:28.928Z,4.10
2022-11-25T07:51:59.835Z,3.83
2022-11-25T07:54:27.452Z,4.22
2022-11-25T07:56:54.753Z,3.70
2022-11-25T07:59:22.816Z,4.97
2022-11-25T08:01:53.778Z,3.80
2022-11-25T08:04:21.356Z,4.28
2022-11-25T08:06:50.050Z,3.50
2022-11-25T08:09:21.607Z,3.97
2022-11-25T08:11:49.537Z,4.05
2022-11-25T08:14:17.131Z,4.07
2022-11-25T08:16:44.488Z,4.30
2022-11-25T08:19:14.350Z,5.18
2022-11-25T08:21:42.273Z,4.93
2022-11-25T08:24:13.954Z,4.50
2022-11-25T08:26:41.299Z,4.65
2022-11-25T08:29:09.497Z,4.95
2022-11-25T08:31:38.167Z,4.80
2022-11-25T08:34:07.094Z,4.27
2022-11-25T08:36:35.775Z,3.55
2022-11-25T08:39:22.501Z,4.50
2022-11-25T08:41:52.460Z,3.35
2022-11-25T08:44:19.823Z,2.72
2022-11-25T08:46:47.217Z,4.40
2022-11-25T08:49:17.291Z,3.80
2022-11-25T08:51:44.653Z,3.53
2022-11-25T08:54:12.136Z,3.80
2022-11-25T08:56:39.476Z,3.83
2022-11-25T08:59:06.890Z,3.63
2022-11-25T09:01:34.305Z,3.67
2022-11-25T09:04:01.771Z,3.47
2022-11-25T09:06:30.010Z,3.30
2022-11-25T09:08:58.131Z,2.50
2022-11-25T09:11:26.311Z,2.93
2022-11-25T09:13:53.835Z,3.40
2022-11-25T09:16:21.634Z,6.13
2022-11-25T09:18:55.339Z,5.45
2022-11-25T09:21:25.124Z,4.45
2022-11-25T09:23:54.071Z,4.37
2022-11-25T09:26:31.722Z,3.50
2022-11-25T09:28:59.320Z,3.70
2022-11-25T09:31:26.642Z,2.83
2022-11-25T09:33:54.198Z,2.60
2022-11-25T09:36:23.628Z,3.20
2022-11-25T09:38:51.581Z,3.55
2022-11-25T09:41:41.854Z,2.75
2022-11-25T09:44:35.286Z,5.57
2022-11-25T09:47:02.555Z,2.80
2022-11-25T09:49:39.393Z,2.10
2022-11-25T09:52:06.941Z,4.63
2022-11-25T09:54:37.624Z,3.97
2022-11-25T09:57:24.072Z,2.60
2022-11-25T09:59:57.550Z,2.67
2022-11-25T10:02:31.034Z,2.73
2022-11-25T10:05:34.139Z,1.75
2022-11-25T10:08:03.970Z,2.10
2022-11-25T10:10:37.731Z,2.33
2022-11-25T10:13:06.506Z,3.08
2022-11-25T10:15:36.481Z,3.10
2022-11-25T10:18:20.577Z,3.05
2022-11-25T10:20:50.146Z,2.90
2022-11-25T10:23:27.871Z,3.10
2022-11-25T10:26:02.220Z,2.67
2022-11-25T10:28:34.359Z,3.23
2022-11-25T10:31:16.448Z,3.67
2022-11-25T10:33:48.530Z,3.20
2022-11-25T10:36:18.816Z,3.17
2022-11-25T10:38:53.222Z,3.72
2022-11-25T10:41:21.798Z,3.40
2022-11-25T10:43:49.368Z,3.30
2022-11-25T10:47:11.129Z,3.70
2022-11-25T10:49:38.958Z,3.75
2022-11-25T10:52:13.852Z,3.33
2022-11-25T10:54:42.123Z,3.23
2022-11-25T10:57:20.238Z,3.47
2022-11-25T11:00:00.839Z,3.45
2022-11-25T11:02:38.520Z,3.65
2022-11-25T11:05:08.899Z,3.47
2022-11-25T11:07:46.800Z,3.33
2022-11-25T11:10:19.743Z,3.22
2022-11-25T11:13:04.141Z,3.30
2022-11-25T11:15:33.188Z,3.60
2022-11-25T11:18:14.794Z,3.33
2022-11-25T11:20:52.245Z,2.97
2022-11-25T11:23:19.748Z,2.88
2022-11-25T11:26:09.704Z,3.00
2022-11-25T11:28:37.329Z,2.20
2022-11-25T11:31:08.034Z,2.58
2022-11-25T11:34:04.703Z,3.33
2022-11-25T11:36:35.422Z,2.05
2022-11-25T11:39:05.558Z,2.80
2022-11-25T11:41:42.162Z,2.70
2022-11-25T11:44:16.495Z,2.95
2022-11-25T11:46:50.608Z,2.37
2022-11-25T11:49:21.755Z,2.30
2022-11-25T11:52:01.027Z,2.15
2022-11-25T11:54:36.167Z,2.40
2022-11-25T11:57:14.273Z,2.00
2022-11-25T11:59:46.849Z,2.30
2022-11-25T12:02:32.770Z,2.60
2022-11-25T12:05:06.065Z,2.13
2022-11-25T12:07:49.242Z,1.83
2022-11-25T12:10:16.658Z,1.77
2022-11-25T12:12:47.045Z,1.50
2022-11-25T12:15:29.519Z,2.35
2022-11-25T12:17:59.344Z,1.80
2022-11-25T12:20:38.749Z,2.70
2022-11-25T12:23:20.687Z,2.55
2022-11-25T12:25:51.962Z,2.00
2022-11-25T12:28:22.194Z,2.10
2022-11-25T12:30:49.427Z,2.20
2022-11-25T12:33:24.691Z,2.30
2022-11-25T12:36:03.916Z,2.15
2022-11-25T12:38:38.265Z,2.47
2022-11-25T12:41:05.524Z,2.33
2022-11-25T12:43:35.855Z,2.25
2022-11-25T12:46:09.161Z,2.70
2022-11-25T12:48:40.121Z,2.97
2022-11-25T12:51:34.709Z,2.40
2022-11-25T12:54:09.039Z,2.40
2022-11-25T12:56:45.622Z,2.55
2022-11-25T12:59:36.919Z,2.38
2022-11-25T13:02:23.155Z,2.45
2022-11-25T13:04:50.593Z,3.10
2022-11-25T13:07:21.010Z,3.10
2022-11-25T13:10:00.589Z,3.10
2022-11-25T13:12:47.112Z,3.20
2022-11-25T13:15:27.027Z,2.95
2022-11-25T13:18:05.507Z,2.77
2022-11-25T13:20:36.262Z,2.60
2022-11-25T13:23:10.315Z,2.67
2022-11-25T13:25:42.380Z,2.45
2022-11-25T13:28:28.491Z,2.47
2022-11-25T13:30:55.906Z,2.50
2022-11-25T13:33:23.195Z,2.85
2022-11-25T13:35:53.031Z,2.67
2022-11-25T13:38:35.775Z,3.03
2022-11-25T13:41:27.485Z,3.58
2022-11-25T13:43:56.660Z,2.40
2022-11-25T13:46:49.073Z,2.80
2022-11-25T13:49:27.678Z,2.50
2022-11-25T13:51:56.556Z,3.17
2022-11-25T13:54:26.554Z,3.17
2022-11-25T13:57:20.223Z,2.40
2022-11-25T13:59:51.942Z,2.85
2022-11-25T14:02:25.566Z,2.47
2022-11-25T14:04:53.096Z,3.03
2022-11-25T14:07:36.975Z,3.00
2022-11-25T14:10:10.582Z,3.10
2022-11-25T14:12:40.867Z,2.03
2022-11-25T14:15:26.943Z,2.38
2022-11-25T14:18:43.006Z,3.35
2022-11-25T14:21:29.951Z,2.58
2022-11-25T14:24:05.987Z,2.80
2022-11-25T14:26:49.904Z,2.42
2022-11-25T14:29:33.234Z,3.42
2022-11-25T14:32:04.381Z,2.85
2022-11-25T14:34:37.886Z,3.70
2022-11-25T14:37:24.184Z,4.47
2022-11-25T14:39:56.566Z,2.83
2022-11-25T14:42:25.030Z,3.25
2022-11-25T14:44:55.806Z,7.32
2022-11-25T14:47:24.393Z,5.13
2022-11-25T14:50:11.715Z,7.10
2022-11-25T14:52:43.858Z,3.90
2022-11-25T14:55:11.711Z,3.85
2022-11-25T14:57:41.753Z,2.78
2022-11-25T15:00:11.285Z,4.10
2022-11-25T15:02:41.211Z,3.93
2022-11-25T15:05:08.500Z,4.10
2022-11-25T15:07:35.829Z,3.85
2022-11-25T15:10:03.178Z,3.72
2022-11-25T15:12:33.881Z,3.35
2022-11-25T15:15:01.267Z,3.50
2022-11-25T15:17:33.266Z,7.75
2022-11-25T15:20:02.542Z,3.83
2022-11-25T15:22:30.019Z,2.58
2022-11-25T15:25:07.888Z,5.78
2022-11-25T15:27:35.166Z,5.13
2022-11-25T15:30:02.650Z,3.78
2022-11-25T15:32:31.919Z,3.08
2022-11-25T15:35:00.252Z,3.00
2022-11-25T15:37:28.471Z,3.80
2022-11-25T15:40:14.392Z,7.10
2022-11-25T15:42:42.866Z,3.85
2022-11-25T15:45:11.975Z,3.85
2022-11-25T15:47:39.289Z,3.75
2022-11-25T15:50:22.082Z,4.13
2022-11-25T15:52:51.952Z,4.30
2022-11-25T15:55:21.214Z,7.88
2022-11-25T15:57:51.431Z,3.88
2022-11-25T16:00:20.490Z,3.90
2022-11-25T16:02:47.776Z,3.72
2022-11-25T16:05:15.095Z,4.60
2022-11-25T16:07:51.816Z,4.05
2022-11-25T16:10:27.471Z,3.42
2022-11-25T16:13:15.715Z,3.35
2022-11-25T16:15:51.720Z,3.28
2022-11-25T16:18:39.350Z,3.57
2022-11-25T16:21:27.384Z,3.50
2022-11-25T16:23:57.695Z,3.60
2022-11-25T16:26:28.437Z,4.18
2022-11-25T16:28:57.685Z,3.55
2022-11-25T16:31:25.676Z,2.90
2022-11-25T16:34:10.185Z,3.13
2022-11-25T16:36:37.424Z,3.45
2022-11-25T16:39:04.752Z,2.97
2022-11-25T16:41:32.102Z,3.17
2022-11-25T16:44:02.570Z,2.77
2022-11-25T16:46:32.489Z,2.85
2022-11-25T16:49:02.987Z,3.80
2022-11-25T16:51:30.308Z,5.22
2022-11-25T16:53:57.568Z,3.90
2022-11-25T16:56:27.510Z,4.10
2022-11-25T16:58:55.099Z,3.85
2022-11-25T17:01:24.101Z,3.25
2022-11-25T17:03:51.493Z,3.70
2022-11-25T17:06:22.187Z,3.40
2022-11-25T17:08:50.239Z,3.57
2022-11-25T17:11:20.266Z,3.33
2022-11-25T17:13:51.763Z,4.18
2022-11-25T17:16:20.513Z,3.47
2022-11-25T17:18:48.061Z,3.92
2022-11-25T17:21:16.194Z,4.23
2022-11-25T17:23:44.349Z,3.60
2022-11-25T17:26:19.606Z,4.32
2022-11-25T17:28:50.745Z,5.60
2022-11-25T17:31:18.160Z,4.20
2022-11-25T17:33:46.679Z,4.13
2022-11-25T17:36:14.104Z,4.30
2022-11-25T17:38:41.826Z,3.60
2022-11-25T17:41:13.490Z,3.97
2022-11-25T17:43:40.833Z,4.65
2022-11-25T17:46:15.413Z,3.60
2022-11-25T17:48:43.072Z,3.92
2022-11-25T17:51:14.326Z,3.75
2022-11-25T17:53:42.193Z,4.05
2022-11-25T17:56:18.843Z,4.13
2022-11-25T17:58:46.508Z,4.37
2022-11-25T18:01:13.863Z,3.80
2022-11-25T18:03:41.352Z,4.05
2022-11-25T18:06:08.880Z,4.00
2022-11-25T18:08:36.172Z,4.85
2022-11-25T18:11:05.204Z,4.47
2022-11-25T18:13:36.539Z,4.53
2022-11-25T18:16:03.997Z,5.72
2022-11-25T18:18:31.282Z,3.35
2022-11-25T18:20:58.579Z,4.03
2022-11-25T18:23:25.963Z,6.33
2022-11-25T18:25:54.144Z,4.72
2022-11-25T18:28:22.591Z,4.88
2022-11-25T18:30:51.453Z,5.05
2022-11-25T18:33:20.597Z,4.38
2022-11-25T18:35:48.519Z,4.10
2022-11-25T18:38:15.882Z,5.40
2022-11-25T18:40:47.637Z,8.15
2022-11-25T18:43:23.135Z,5.10
2022-11-25T18:45:50.790Z,5.25
2022-11-25T18:48:19.629Z,4.60
2022-11-25T18:50:47.561Z,4.18
2022-11-25T18:53:14.970Z,3.63
2022-11-25T18:55:42.249Z,5.32
2022-11-25T18:58:20.142Z,5.28
2022-11-25T19:00:48.639Z,5.30
2022-11-25T19:03:20.672Z,5.75
2022-11-25T19:05:47.957Z,4.45
2022-11-25T19:08:15.598Z,4.20
2022-11-25T19:10:44.646Z,4.20
2022-11-25T19:13:38.397Z,4.93
2022-11-25T19:16:11.817Z,4.38
2022-11-25T19:18:39.445Z,4.90
2022-11-25T19:21:06.872Z,4.40
2022-11-25T19:23:36.112Z,4.88
2022-11-25T19:26:08.011Z,5.07
2022-11-25T19:28:35.410Z,4.95
2022-11-25T19:31:04.639Z,4.53
2022-11-25T19:33:34.703Z,4.40
2022-11-25T19:36:02.067Z,4.72
2022-11-25T19:38:31.011Z,5.17
2022-11-25T19:40:58.393Z,4.63
2022-11-25T19:43:29.155Z,4.65
2022-11-25T19:45:57.486Z,5.18
2022-11-25T19:48:27.155Z,5.13
2022-11-25T19:50:59.758Z,4.77
2022-11-25T19:53:33.125Z,4.72
2022-11-25T19:56:04.229Z,4.38
2022-11-25T19:58:31.967Z,4.68
2022-11-25T20:01:02.050Z,4.45
2022-11-25T20:03:30.687Z,5.55
2022-11-25T20:05:57.970Z,4.53
2022-11-25T20:08:26.793Z,4.70
2022-11-25T20:10:54.435Z,4.68
2022-11-25T20:13:23.430Z,5.28
2022-11-25T20:15:51.054Z,4.60
2022-11-25T20:18:23.191Z,4.60
2022-11-25T20:20:55.940Z,5.13
2022-11-25T20:23:27.961Z,5.15
2022-11-25T20:25:55.465Z,5.13
2022-11-25T20:28:27.191Z,5.07
2022-11-25T20:30:55.038Z,5.75
2022-11-25T20:33:24.559Z,3.85
2022-11-25T20:35:53.600Z,4.80
2022-11-25T20:38:22.121Z,5.07
2022-11-25T20:40:51.904Z,6.40
2022-11-25T20:43:22.220Z,5.57
2022-11-25T20:45:50.367Z,5.07
2022-11-25T20:48:17.848Z,4.70
2022-11-25T20:50:45.170Z,21.60
2022-11-25T20:53:19.761Z,6.90
2022-11-25T20:55:48.145Z,5.60
2022-11-25T20:58:34.504Z,5.60
2022-11-25T21:01:01.917Z,4.55
2022-11-25T21:03:29.242Z,5.05
2022-11-25T21:05:58.196Z,4.65
2022-11-25T21:08:26.551Z,4.53
2022-11-25T21:10:55.495Z,4.63
2022-11-25T21:13:24.347Z,5.43
2022-11-25T21:15:56.766Z,4.88
2022-11-25T21:18:24.388Z,5.70
2022-11-25T21:20:53.165Z,5.40
2022-11-25T21:23:25.643Z,4.85
2022-11-25T21:25:52.985Z,4.53
2022-11-25T21:28:25.899Z,5.30
2022-11-25T21:30:53.367Z,6.93
2022-11-25T21:33:20.692Z,5.32
2022-11-25T21:35:48.839Z,5.20
2022-11-25T21:38:18.574Z,5.10
2022-11-25T21:40:47.236Z,5.88
2022-11-25T21:43:22.017Z,7.13
2022-11-25T21:45:49.959Z,6.47
2022-11-25T21:48:19.271Z,6.60
2022-11-25T21:50:46.722Z,5.30
2022-11-25T21:53:14.302Z,5.90
2022-11-25T21:55:41.880Z,5.10
2022-11-25T21:58:19.846Z,4.50
2022-11-25T22:00:49.600Z,5.63
2022-11-25T22:03:17.951Z,5.47
2022-11-25T22:05:45.761Z,7.55
2022-11-25T22:08:13.139Z,4.82
2022-11-25T22:10:42.460Z,5.18
2022-11-25T22:13:14.077Z,4.65
2022-11-25T22:15:41.644Z,4.97
2022-11-25T22:18:13.175Z,4.40
2022-11-25T22:20:41.159Z,4.05
2022-11-25T22:23:18.385Z,5.65
2022-11-25T22:25:46.787Z,4.82
2022-11-25T22:28:15.375Z,4.40
2022-11-25T22:30:44.723Z,5.13
2022-11-25T22:33:13.030Z,5.72
2022-11-25T22:35:40.502Z,4.72
2022-11-25T22:38:15.202Z,4.47
2022-11-25T22:40:43.523Z,4.68
2022-11-25T22:43:16.399Z,5.47
2022-11-25T22:45:44.255Z,6.55
2022-11-25T22:48:15.222Z,4.90
2022-11-25T22:50:43.944Z,5.45
2022-11-25T22:53:15.325Z,4.13
2022-11-25T22:55:42.811Z,6.63
2022-11-25T22:58:11.103Z,5.30
2022-11-25T23:00:42.100Z,4.78
2022-11-25T23:03:15.017Z,4.97
2022-11-25T23:05:42.397Z,5.72
2022-11-25T23:08:12.016Z,6.57
2022-11-25T23:10:39.380Z,5.80
2022-11-25T23:13:06.786Z,11.23
2022-11-25T23:15:35.064Z,10.35
2022-11-25T23:18:03.233Z,10.88
2022-11-25T23:20:32.529Z,6.60
2022-11-25T23:23:03.517Z,9.65
2022-11-25T23:25:30.829Z,5.35
2022-11-25T23:27:58.110Z,5.30
2022-11-25T23:30:25.475Z,4.55
2022-11-25T23:32:53.625Z,4.50
2022-11-25T23:35:23.578Z,5.88
2022-11-25T23:37:56.070Z,4.78
2022-11-25T23:40:24.404Z,4.90
2022-11-25T23:42:51.895Z,5.38
2022-11-25T23:45:21.032Z,5.38
2022-11-25T23:47:49.490Z,5.70
2022-11-25T23:50:35.041Z,5.85
2022-11-25T23:53:03.427Z,4.95
2022-11-25T23:55:31.893Z,5.65
2022-11-25T23:58:00.940Z,5.18
